Time;durP1;ratioP1;P1;durP2;ratioP2;P2;SDS_P1;SDS_P2;PMS_P1;PMS_P2;Temp;Humidity;BMP_temperature;BMP_pressure;BME280_temperature;BME280_humidity;BME280_pressure;Samples;Min_cycle;Max_cycle;Signal;HPM_P1;HPM_P2
2023/01/07 00:01:26;;;;;;;5.27;3.20;;;;;;;9.62;100.00;96759.25;4977072;28;20639;-69
2023/01/07 00:03:53;;;;;;;7.20;3.23;;;;;;;9.60;100.00;96755.97;4978923;28;20203;-69
2023/01/07 00:06:21;;;;;;;6.53;3.30;;;;;;;9.61;100.00;96752.38;4981497;28;20703;-68
2023/01/07 00:08:49;;;;;;;8.63;3.40;;;;;;;9.60;100.00;96753.34;4981491;28;20721;-68
2023/01/07 00:11:18;;;;;;;5.10;3.10;;;;;;;9.63;100.00;96754.84;4981608;28;20220;-69
2023/01/07 00:13:44;;;;;;;5.33;3.57;;;;;;;9.57;100.00;96755.47;4980608;28;20196;-68
2023/01/07 00:16:14;;;;;;;6.70;3.30;;;;;;;9.64;100.00;96761.75;4980894;28;20235;-69
2023/01/07 00:18:41;;;;;;;9.27;3.53;;;;;;;9.53;100.00;96764.66;4982192;28;20199;-69
2023/01/07 00:21:10;;;;;;;6.73;3.70;;;;;;;9.64;100.00;96759.13;4981766;28;20211;-69
2023/01/07 00:23:38;;;;;;;5.90;3.63;;;;;;;9.53;100.00;96754.94;4980408;28;20203;-69
2023/01/07 00:26:06;;;;;;;5.83;3.63;;;;;;;9.56;100.00;96753.81;4980554;28;20227;-69
2023/01/07 00:28:34;;;;;;;6.23;4.03;;;;;;;9.52;100.00;96753.31;4981438;28;20238;-69
2023/01/07 00:31:01;;;;;;;6.17;3.93;;;;;;;9.46;100.00;96753.13;4980739;28;20218;-69
2023/01/07 00:33:29;;;;;;;7.07;3.60;;;;;;;9.57;100.00;96740.53;4981210;28;20211;-69
2023/01/07 00:36:00;;;;;;;6.47;3.60;;;;;;;9.63;100.00;96746.94;4980505;28;20233;-69
2023/01/07 00:38:26;;;;;;;6.23;3.83;;;;;;;9.49;100.00;96745.72;4980969;28;20238;-69
2023/01/07 00:40:53;;;;;;;7.83;3.80;;;;;;;9.51;100.00;96746.41;4980389;28;20214;-69
2023/01/07 00:43:19;;;;;;;9.20;4.60;;;;;;;9.50;100.00;96741.31;4981274;28;20210;-69
2023/01/07 00:45:46;;;;;;;9.20;4.30;;;;;;;9.47;100.00;96742.44;4979849;28;20219;-69
2023/01/07 00:48:12;;;;;;;8.03;4.53;;;;;;;9.47;100.00;96739.81;4980773;28;20230;-69
2023/01/07 00:50:40;;;;;;;7.80;3.93;;;;;;;9.55;100.00;96731.94;4980781;28;20203;-69
2023/01/07 00:53:07;;;;;;;7.30;4.10;;;;;;;9.45;100.00;96736.50;4980770;28;20216;-69
2023/01/07 00:55:33;;;;;;;5.83;3.50;;;;;;;9.37;100.00;96738.28;4979894;28;20223;-69
2023/01/07 00:58:00;;;;;;;6.50;3.53;;;;;;;9.43;100.00;96738.50;4980710;28;20206;-69
2023/01/07 01:00:26;;;;;;;6.77;3.43;;;;;;;9.42;100.00;96742.09;4980929;28;20207;-68
2023/01/07 01:02:53;;;;;;;5.73;3.43;;;;;;;9.50;100.00;96738.69;4980340;28;20199;-68
2023/01/07 01:05:20;;;;;;;8.27;4.03;;;;;;;9.45;100.00;96740.94;4979492;28;20686;-69
2023/01/07 01:07:48;;;;;;;8.47;4.03;;;;;;;9.52;100.00;96737.53;4980368;28;20238;-68
2023/01/07 01:10:17;;;;;;;8.77;4.20;;;;;;;9.45;100.00;96735.69;4980161;28;20203;-68
2023/01/07 01:12:44;;;;;;;6.63;3.73;;;;;;;9.48;100.00;96736.22;4980084;28;21301;-69
2023/01/07 01:15:14;;;;;;;8.13;4.10;;;;;;;9.53;100.00;96738.34;4978392;28;20207;-69
2023/01/07 01:17:41;;;;;;;7.63;3.90;;;;;;;9.44;100.00;96734.03;4980521;28;20891;-69
2023/01/07 01:20:11;;;;;;;7.50;3.80;;;;;;;9.48;100.00;96738.00;4980337;28;20789;-69
2023/01/07 01:22:38;;;;;;;6.70;4.13;;;;;;;9.41;100.00;96739.63;4979916;28;20215;-69
2023/01/07 01:25:07;;;;;;;6.80;4.03;;;;;;;9.39;100.00;96739.75;4979129;28;20441;-69
2023/01/07 01:27:34;;;;;;;7.50;4.20;;;;;;;9.26;100.00;96739.38;4979757;28;20234;-69
2023/01/07 01:30:01;;;;;;;8.33;4.20;;;;;;;9.30;100.00;96737.25;4981203;28;20210;-68
2023/01/07 01:32:27;;;;;;;7.83;4.07;;;;;;;9.33;100.00;96735.16;4979609;28;20245;-68
2023/01/07 01:34:54;;;;;;;7.27;4.13;;;;;;;9.37;100.00;96735.66;4978500;28;20207;-68
2023/01/07 01:37:20;;;;;;;6.70;3.63;;;;;;;9.38;100.00;96732.03;4979593;28;20597;-68
2023/01/07 01:39:47;;;;;;;6.37;3.70;;;;;;;9.38;100.00;96729.41;4978720;28;20686;-68
2023/01/07 01:42:16;;;;;;;13.07;4.40;;;;;;;9.50;100.00;96734.22;4979065;28;21055;-68
2023/01/07 01:44:49;;;;;;;9.33;4.20;;;;;;;9.50;100.00;96725.53;4978765;28;20214;-68
2023/01/07 01:47:20;;;;;;;6.93;3.70;;;;;;;9.50;100.00;96723.69;4979328;28;20223;-68
2023/01/07 01:49:52;;;;;;;7.77;4.07;;;;;;;9.48;100.00;96722.22;4979250;28;20219;-68
2023/01/07 01:52:23;;;;;;;7.77;4.03;;;;;;;9.34;100.00;96714.91;4980089;28;20229;-68
2023/01/07 01:54:55;;;;;;;8.33;4.03;;;;;;;9.47;100.00;96712.66;4978585;28;20207;-68
2023/01/07 01:57:25;;;;;;;9.03;4.60;;;;;;;9.36;100.00;96721.66;4979057;28;20802;-68
2023/01/07 01:59:52;;;;;;;7.13;4.33;;;;;;;9.21;100.00;96717.16;4979509;28;20210;-68
2023/01/07 02:02:24;;;;;;;10.50;5.07;;;;;;;9.30;100.00;96721.47;4979551;28;20215;-68
2023/01/07 02:04:52;;;;;;;7.43;4.07;;;;;;;9.23;100.00;96716.03;4978323;28;20210;-68
2023/01/07 02:07:18;;;;;;;10.73;4.50;;;;;;;9.21;100.00;96717.16;4979333;28;20231;-68
2023/01/07 02:09:50;;;;;;;7.77;4.40;;;;;;;9.32;100.00;96709.00;4978991;28;20223;-68
2023/01/07 02:12:24;;;;;;;8.20;4.63;;;;;;;9.41;100.00;96710.69;4979039;28;20203;-68
2023/01/07 02:15:09;;;;;;;8.03;4.47;;;;;;;9.46;100.00;96701.34;4978446;28;20199;-68
2023/01/07 02:17:46;;;;;;;8.03;4.17;;;;;;;9.42;100.00;96705.25;4979390;28;20211;-69
2023/01/07 02:20:43;;;;;;;8.23;4.20;;;;;;;9.44;100.00;96698.03;4978629;28;20211;-68
2023/01/07 02:23:48;;;;;;;12.70;4.97;;;;;;;9.35;100.00;96700.78;4978867;28;20211;-68
2023/01/07 02:27:00;;;;;;;7.60;4.17;;;;;;;9.42;100.00;96697.38;4978578;28;20227;-68
2023/01/07 02:30:02;;;;;;;9.30;4.40;;;;;;;9.45;100.00;96690.97;4978747;28;20235;-68
2023/01/07 02:33:04;;;;;;;7.60;4.10;;;;;;;9.40;100.00;96688.00;4979812;28;20218;-68
2023/01/07 02:35:42;;;;;;;8.37;4.67;;;;;;;9.32;100.00;96686.16;4957580;28;20227;-68
2023/01/07 02:38:19;;;;;;;11.20;5.03;;;;;;;9.33;100.00;96690.44;4979028;28;20218;-68
2023/01/07 02:41:00;;;;;;;8.17;4.33;;;;;;;9.40;100.00;96680.09;4979725;28;20206;-69
2023/01/07 02:43:37;;;;;;;8.03;4.20;;;;;;;9.27;100.00;96679.72;4978936;28;20218;-68
2023/01/07 02:46:11;;;;;;;10.00;4.40;;;;;;;9.32;100.00;96674.81;4978820;28;20620;-68
2023/01/07 02:48:40;;;;;;;9.30;5.03;;;;;;;9.30;100.00;96674.94;4979160;28;20230;-68
2023/01/07 02:51:07;;;;;;;10.50;5.10;;;;;;;9.26;100.00;96667.56;4978383;28;20207;-68
2023/01/07 02:53:34;;;;;;;9.37;4.87;;;;;;;9.29;100.00;96667.22;4978636;28;20213;-68
2023/01/07 02:56:16;;;;;;;9.07;4.37;;;;;;;9.40;100.00;96664.31;4978410;28;20562;-73
2023/01/07 02:59:14;;;;;;;8.53;4.27;;;;;;;9.46;100.00;96661.88;4979110;28;20223;-68
2023/01/07 03:02:04;;;;;;;7.87;4.37;;;;;;;9.36;100.00;96663.00;4964781;28;20211;-68
2023/01/07 03:04:52;;;;;;;9.73;4.97;;;;;;;9.32;100.00;96661.69;4977972;28;20619;-68
2023/01/07 03:07:32;;;;;;;10.30;4.90;;;;;;;9.40;100.00;96656.44;4978448;28;20243;-68
2023/01/07 03:10:05;;;;;;;8.67;4.33;;;;;;;9.36;100.00;96652.47;4978454;28;20226;-68
2023/01/07 03:12:36;;;;;;;10.20;4.93;;;;;;;9.31;100.00;96646.88;4976557;28;20583;-68
2023/01/07 03:15:09;;;;;;;8.90;4.60;;;;;;;9.30;100.00;96653.91;4978271;28;20211;-68
2023/01/07 03:17:40;;;;;;;11.83;5.20;;;;;;;9.29;100.00;96644.41;4978414;28;20575;-68
2023/01/07 03:20:11;;;;;;;9.77;4.87;;;;;;;9.30;100.00;96643.41;4978383;28;20207;-68
2023/01/07 03:22:40;;;;;;;9.30;4.67;;;;;;;9.21;100.00;96638.28;4978154;28;20268;-68
2023/01/07 03:25:08;;;;;;;11.57;5.17;;;;;;;9.20;100.00;96636.63;4977139;28;20211;-68
2023/01/07 03:27:35;;;;;;;12.43;5.70;;;;;;;9.17;100.00;96637.75;4977905;28;20211;-68
2023/01/07 03:30:08;;;;;;;10.03;4.77;;;;;;;9.26;100.00;96630.75;4977421;28;20271;-68
2023/01/07 03:32:40;;;;;;;11.27;5.50;;;;;;;9.21;100.00;96628.56;4977841;28;20670;-68
2023/01/07 03:35:09;;;;;;;11.90;6.40;;;;;;;9.23;100.00;96631.06;4977290;28;20218;-68
2023/01/07 03:37:36;;;;;;;18.37;5.77;;;;;;;9.22;100.00;96619.72;4974316;28;20214;-68
2023/01/07 03:40:08;;;;;;;10.60;4.87;;;;;;;9.24;100.00;96616.91;4974992;28;20590;-68
2023/01/07 03:42:40;;;;;;;9.73;5.03;;;;;;;9.11;100.00;96614.75;4976494;28;20209;-68
2023/01/07 03:45:11;;;;;;;10.97;5.73;;;;;;;9.22;100.00;96614.44;4976486;28;20214;-68
2023/01/07 03:47:40;;;;;;;12.93;6.10;;;;;;;9.20;100.00;96610.34;4977207;28;20663;-68
2023/01/07 03:50:09;;;;;;;13.43;6.27;;;;;;;9.12;100.00;96613.75;4977969;28;20226;-69
2023/01/07 03:52:35;;;;;;;11.50;5.80;;;;;;;9.08;100.00;96609.00;4976527;28;20213;-68
2023/01/07 03:55:03;;;;;;;12.33;6.00;;;;;;;9.09;100.00;96605.38;4975516;28;20207;-68
2023/01/07 03:57:30;;;;;;;14.33;6.27;;;;;;;9.09;100.00;96600.13;4977078;28;20306;-68
2023/01/07 03:59:57;;;;;;;13.87;6.50;;;;;;;9.03;100.00;96595.50;4977631;28;20210;-68
2023/01/07 04:02:23;;;;;;;12.13;5.70;;;;;;;9.07;100.00;96588.94;4976933;28;20200;-68
2023/01/07 04:04:49;;;;;;;10.83;5.73;;;;;;;9.12;100.00;96590.09;4976455;28;20207;-68
2023/01/07 04:07:17;;;;;;;10.30;5.50;;;;;;;9.21;100.00;96580.44;4976851;28;20243;-68
2023/01/07 04:09:46;;;;;;;11.13;5.63;;;;;;;9.06;100.00;96575.97;4977609;28;20223;-68
2023/01/07 04:12:12;;;;;;;11.13;5.23;;;;;;;9.10;100.00;96578.13;4977440;28;20258;-68
2023/01/07 04:14:39;;;;;;;11.40;5.80;;;;;;;9.06;100.00;96576.78;4977327;28;20206;-68
2023/01/07 04:17:05;;;;;;;11.13;5.53;;;;;;;9.02;100.00;96564.94;4976438;28;20326;-68
2023/01/07 04:19:32;;;;;;;13.13;5.83;;;;;;;9.12;100.00;96563.00;4976222;28;20207;-68
2023/01/07 04:21:58;;;;;;;12.70;5.83;;;;;;;9.04;100.00;96552.47;4975788;28;20210;-68
2023/01/07 04:24:26;;;;;;;12.10;5.50;;;;;;;9.12;100.00;96557.75;4975059;28;20218;-68
2023/01/07 04:26:53;;;;;;;11.70;5.40;;;;;;;9.02;100.00;96549.16;4975360;28;20237;-68
2023/01/07 04:29:19;;;;;;;13.10;5.50;;;;;;;9.07;100.00;96549.50;4975877;28;20715;-68
2023/01/07 04:31:46;;;;;;;11.60;5.23;;;;;;;9.08;100.00;96551.16;4975942;28;20555;-68
2023/01/07 04:34:12;;;;;;;11.87;5.50;;;;;;;9.03;100.00;96545.56;4976530;28;20207;-68
2023/01/07 04:36:38;;;;;;;13.73;5.80;;;;;;;8.99;100.00;96549.50;4977147;28;20223;-68
2023/01/07 04:39:05;;;;;;;12.17;5.67;;;;;;;8.98;100.00;96541.78;4977356;28;20983;-68
2023/01/07 04:41:33;;;;;;;11.50;5.70;;;;;;;8.96;100.00;96539.31;4977803;28;20207;-68
2023/01/07 04:43:59;;;;;;;12.50;5.93;;;;;;;8.94;100.00;96546.50;4976594;28;20226;-68
2023/01/07 04:46:26;;;;;;;10.50;5.13;;;;;;;8.98;100.00;96537.31;4977320;28;20223;-68
2023/01/07 04:48:52;;;;;;;10.50;5.33;;;;;;;8.93;100.00;96539.59;4977898;28;20366;-68
2023/01/07 04:51:19;;;;;;;11.20;5.23;;;;;;;8.94;100.00;96536.00;4980506;28;20218;-68
2023/01/07 04:53:45;;;;;;;11.43;5.50;;;;;;;8.96;100.00;96535.84;4980089;28;20203;-68
2023/01/07 04:56:12;;;;;;;10.73;5.17;;;;;;;8.93;100.00;96530.91;4980502;28;20223;-68
2023/01/07 04:58:40;;;;;;;10.40;5.57;;;;;;;8.99;100.00;96530.28;4980525;28;20269;-68
2023/01/07 05:01:07;;;;;;;12.93;5.93;;;;;;;8.93;100.00;96529.09;4980586;28;20219;-68
2023/01/07 05:03:34;;;;;;;10.33;5.00;;;;;;;8.95;100.00;96529.78;4980173;28;20667;-68
2023/01/07 05:06:01;;;;;;;11.07;5.03;;;;;;;8.89;100.00;96524.34;4979821;28;20278;-68
2023/01/07 05:08:27;;;;;;;10.03;5.17;;;;;;;8.89;100.00;96521.72;4979944;28;20215;-68
2023/01/07 05:10:54;;;;;;;10.57;5.07;;;;;;;8.86;100.00;96522.84;4980890;28;20233;-68
2023/01/07 05:13:23;;;;;;;8.70;4.70;;;;;;;9.02;100.00;96522.06;4980294;28;20207;-68
2023/01/07 05:15:51;;;;;;;9.90;4.80;;;;;;;9.00;100.00;96511.72;4979986;28;20238;-69
2023/01/07 05:18:18;;;;;;;8.37;4.53;;;;;;;8.94;100.00;96514.97;4980261;28;20207;-68
2023/01/07 05:20:47;;;;;;;10.50;5.40;;;;;;;9.03;100.00;96514.00;4980093;28;20221;-68
2023/01/07 05:23:13;;;;;;;11.53;4.83;;;;;;;8.85;100.00;96509.88;4980310;28;20242;-68
2023/01/07 05:25:40;;;;;;;9.23;4.67;;;;;;;8.92;100.00;96510.84;4979691;28;20733;-68
2023/01/07 05:28:06;;;;;;;9.13;4.63;;;;;;;8.95;100.00;96505.28;4980036;28;20218;-68
2023/01/07 05:30:33;;;;;;;8.57;4.70;;;;;;;8.92;100.00;96500.34;4980142;28;20877;-68
2023/01/07 05:33:01;;;;;;;8.00;4.00;;;;;;;9.02;100.00;96506.28;4980283;28;20586;-68
2023/01/07 05:35:27;;;;;;;8.13;4.23;;;;;;;8.94;100.00;96508.91;4979295;28;20238;-68
2023/01/07 05:37:53;;;;;;;8.60;4.40;;;;;;;8.92;100.00;96495.91;4979774;28;20200;-68
2023/01/07 05:40:20;;;;;;;8.80;4.50;;;;;;;8.88;100.00;96497.22;4979388;28;20671;-68
2023/01/07 05:42:47;;;;;;;9.70;4.90;;;;;;;8.85;100.00;96496.72;4980234;28;20203;-68
2023/01/07 05:45:13;;;;;;;8.83;4.40;;;;;;;8.90;100.00;96492.63;4978466;28;20203;-68
2023/01/07 05:47:40;;;;;;;8.67;4.30;;;;;;;8.86;100.00;96491.31;4979784;28;20702;-68
2023/01/07 05:50:08;;;;;;;7.70;4.03;;;;;;;8.92;100.00;96501.16;4979627;28;20238;-68
2023/01/07 05:52:34;;;;;;;8.27;4.40;;;;;;;8.86;100.00;96491.31;4979718;28;20653;-68
2023/01/07 05:55:01;;;;;;;7.97;4.40;;;;;;;8.86;100.00;96491.31;4978080;28;20211;-68
2023/01/07 05:57:27;;;;;;;8.57;4.40;;;;;;;8.93;100.00;96486.22;4979904;28;21469;-69
2023/01/07 05:59:54;;;;;;;6.60;3.87;;;;;;;8.91;100.00;96483.78;4979379;28;20205;-68
2023/01/07 06:02:20;;;;;;;6.73;4.00;;;;;;;8.92;100.00;96477.50;4978607;28;20207;-68
2023/01/07 06:04:47;;;;;;;8.03;4.30;;;;;;;8.90;100.00;96482.13;4978988;28;21154;-68
2023/01/07 06:07:15;;;;;;;9.77;4.43;;;;;;;8.97;100.00;96474.41;4979331;28;20227;-68
2023/01/07 06:09:41;;;;;;;7.73;3.80;;;;;;;8.85;100.00;96478.34;4979007;28;20215;-68
2023/01/07 06:12:08;;;;;;;9.27;4.47;;;;;;;8.80;100.00;96473.53;4980013;28;20671;-68
2023/01/07 06:14:34;;;;;;;8.87;4.83;;;;;;;8.78;100.00;96480.78;4978702;28;20974;-68
2023/01/07 06:17:01;;;;;;;10.50;4.60;;;;;;;8.86;100.00;96477.31;4978597;28;20246;-68
2023/01/07 06:19:27;;;;;;;9.43;4.70;;;;;;;8.82;100.00;96474.22;4979826;28;20210;-68
2023/01/07 06:21:53;;;;;;;11.93;5.03;;;;;;;8.83;100.00;96478.47;4979332;28;20214;-68
2023/01/07 06:24:21;;;;;;;10.30;5.20;;;;;;;8.94;100.00;96477.38;4978025;28;20342;-68
2023/01/07 06:26:48;;;;;;;9.97;5.43;;;;;;;8.81;100.00;96477.81;4979127;28;20219;-68
2023/01/07 06:29:14;;;;;;;10.03;4.37;;;;;;;8.73;100.00;96475.19;4978867;28;20671;-68
2023/01/07 06:31:41;;;;;;;8.90;4.50;;;;;;;8.72;100.00;96464.84;4978395;28;20215;-68
2023/01/07 06:34:07;;;;;;;9.53;5.30;;;;;;;8.82;100.00;96468.97;4978280;28;20207;-68
2023/01/07 06:36:34;;;;;;;24.20;9.40;;;;;;;8.81;100.00;96474.38;4978245;28;20227;-68
2023/01/07 06:39:00;;;;;;;16.53;6.77;;;;;;;8.78;100.00;96466.81;4978936;28;20571;-68
2023/01/07 06:41:28;;;;;;;15.90;5.80;;;;;;;8.93;100.00;96471.28;4978905;28;20206;-68
2023/01/07 06:43:55;;;;;;;13.70;6.13;;;;;;;8.80;100.00;96470.13;4978492;28;20199;-69
2023/01/07 06:46:21;;;;;;;11.67;5.03;;;;;;;8.80;100.00;96468.28;4978747;28;20227;-68
2023/01/07 06:48:48;;;;;;;8.63;4.60;;;;;;;8.74;100.00;96465.50;4979025;28;20679;-69
2023/01/07 06:51:14;;;;;;;12.00;5.30;;;;;;;8.74;100.00;96454.97;4978708;28;20575;-68
2023/01/07 06:53:41;;;;;;;10.23;5.70;;;;;;;8.68;100.00;96456.44;4978608;28;20210;-68
2023/01/07 06:56:07;;;;;;;11.10;5.90;;;;;;;8.68;100.00;96460.88;4978277;28;20237;-68
2023/01/07 06:58:35;;;;;;;11.43;5.60;;;;;;;8.83;100.00;96454.81;4978335;28;20203;-68
2023/01/07 07:01:05;;;;;;;12.07;6.23;;;;;;;8.91;100.00;96452.25;4978506;28;20199;-68
2023/01/07 07:03:31;;;;;;;10.63;5.60;;;;;;;8.77;100.00;96450.22;4978425;28;20281;-68
2023/01/07 07:05:58;;;;;;;10.57;5.83;;;;;;;8.63;100.00;96452.63;4977739;28;20727;-68
2023/01/07 07:08:24;;;;;;;9.50;4.97;;;;;;;8.68;100.00;96455.63;4978404;28;20586;-69
2023/01/07 07:10:51;;;;;;;8.07;4.77;;;;;;;8.67;100.00;96459.25;4975680;28;20245;-69
2023/01/07 07:13:17;;;;;;;7.83;4.10;;;;;;;8.58;100.00;96450.50;4975739;28;20238;-68
2023/01/07 07:15:46;;;;;;;8.17;5.03;;;;;;;8.69;100.00;96455.47;4975616;28;20237;-68
2023/01/07 07:18:12;;;;;;;9.77;5.27;;;;;;;8.58;100.00;96444.44;4977241;28;20215;-68
2023/01/07 07:20:39;;;;;;;12.50;4.47;;;;;;;8.63;100.00;96447.38;4977254;28;20199;-68
2023/01/07 07:23:05;;;;;;;9.90;4.80;;;;;;;8.60;100.00;96442.47;4977900;28;20218;-69
2023/01/07 07:25:32;;;;;;;10.03;5.03;;;;;;;8.65;100.00;96441.00;4977225;28;20729;-69
2023/01/07 07:27:58;;;;;;;9.97;4.47;;;;;;;8.61;100.00;96444.94;4978279;28;20207;-69
2023/01/07 07:30:25;;;;;;;10.37;4.20;;;;;;;8.59;100.00;96441.66;4978374;28;20718;-68
2023/01/07 07:32:53;;;;;;;8.53;4.90;;;;;;;8.63;100.00;96439.50;4977889;28;20203;-68
2023/01/07 07:35:19;;;;;;;8.67;4.73;;;;;;;8.68;100.00;96442.47;4976807;28;20204;-68
2023/01/07 07:37:46;;;;;;;7.57;4.63;;;;;;;8.64;100.00;96439.38;4977519;28;20199;-68
2023/01/07 07:40:13;;;;;;;8.53;4.23;;;;;;;8.66;100.00;96437.38;4977439;28;20218;-68
2023/01/07 07:42:39;;;;;;;7.43;4.30;;;;;;;8.63;99.82;96436.88;4977421;28;20671;-68
2023/01/07 07:45:07;;;;;;;7.17;4.10;;;;;;;8.66;100.00;96436.56;4977579;28;20214;-68
2023/01/07 07:47:34;;;;;;;9.57;3.53;;;;;;;8.58;100.00;96433.94;4977152;28;20211;-68
2023/01/07 07:50:01;;;;;;;8.20;4.37;;;;;;;8.63;100.00;96432.47;4977808;28;20254;-68
2023/01/07 07:52:28;;;;;;;7.70;4.17;;;;;;;8.57;100.00;96427.84;4977833;28;20203;-68
2023/01/07 07:54:54;;;;;;;8.47;4.43;;;;;;;8.57;100.00;96427.84;4977115;28;20207;-68
2023/01/07 07:57:21;;;;;;;9.00;4.20;;;;;;;8.57;100.00;96430.47;4976877;28;20711;-68
2023/01/07 07:59:47;;;;;;;7.43;3.70;;;;;;;8.59;100.00;96430.31;4977398;28;20203;-68
2023/01/07 08:02:14;;;;;;;10.10;4.33;;;;;;;8.63;100.00;96431.63;4977786;28;20218;-68
2023/01/07 08:04:41;;;;;;;6.47;3.57;;;;;;;8.61;100.00;96423.91;4977369;28;20207;-68
2023/01/07 08:07:10;;;;;;;10.60;5.30;;;;;;;8.70;100.00;96417.69;4977526;28;20223;-68
2023/01/07 08:09:36;;;;;;;11.33;6.20;;;;;;;8.55;99.90;96421.94;4977843;28;20218;-68
2023/01/07 08:12:03;;;;;;;10.03;5.03;;;;;;;8.59;98.87;96419.81;4977578;28;20207;-68
2023/01/07 08:14:29;;;;;;;9.77;5.00;;;;;;;8.58;99.72;96413.72;4976559;28;20219;-69
2023/01/07 08:16:56;;;;;;;9.50;5.37;;;;;;;8.63;98.12;96414.06;4976887;28;20347;-68
2023/01/07 08:19:22;;;;;;;9.23;4.93;;;;;;;8.60;98.71;96418.81;4976405;28;20203;-68
2023/01/07 08:21:50;;;;;;;8.97;4.90;;;;;;;8.70;98.13;96416.88;4976613;28;20199;-68
2023/01/07 08:24:18;;;;;;;9.83;4.53;;;;;;;8.81;98.67;96409.50;4977151;28;20222;-68
2023/01/07 08:26:44;;;;;;;8.20;4.53;;;;;;;8.80;98.36;96410.50;4980499;28;20249;-68
2023/01/07 08:29:11;;;;;;;8.70;4.50;;;;;;;8.76;98.31;96403.13;4980542;28;20203;-68
2023/01/07 08:31:37;;;;;;;8.33;4.30;;;;;;;8.65;98.70;96409.47;4980270;28;20599;-68
2023/01/07 08:34:04;;;;;;;7.23;4.00;;;;;;;8.78;97.96;96403.75;4979975;28;20287;-68
2023/01/07 08:36:30;;;;;;;8.67;3.53;;;;;;;8.79;97.89;96406.22;4980422;28;20223;-68
2023/01/07 08:38:57;;;;;;;5.97;3.60;;;;;;;8.88;96.89;96407.88;4980284;28;20561;-68
2023/01/07 08:41:25;;;;;;;6.20;3.90;;;;;;;8.98;96.71;96395.41;4980047;28;20206;-69
2023/01/07 08:43:53;;;;;;;8.43;4.73;;;;;;;9.02;96.14;96398.53;4979532;28;20210;-69
2023/01/07 08:46:20;;;;;;;8.60;4.90;;;;;;;8.99;96.43;96397.06;4980180;28;20320;-68
2023/01/07 08:48:46;;;;;;;12.60;5.03;;;;;;;9.06;96.26;96390.13;4980130;28;20199;-68
2023/01/07 08:51:13;;;;;;;11.13;5.47;;;;;;;9.13;96.64;96396.41;4980715;28;20227;-68
2023/01/07 08:53:40;;;;;;;7.43;3.83;;;;;;;9.02;95.55;96396.72;4979402;28;20298;-69
2023/01/07 08:56:07;;;;;;;6.80;4.00;;;;;;;9.21;93.60;96394.56;4980069;28;20305;-68
2023/01/07 08:58:35;;;;;;;6.83;3.23;;;;;;;9.28;93.04;96390.31;4980690;28;20671;-68
2023/01/07 09:01:02;;;;;;;5.10;3.10;;;;;;;9.23;91.84;96399.69;4980284;28;20200;-68
2023/01/07 09:03:28;;;;;;;5.13;3.10;;;;;;;9.16;91.86;96385.53;4979172;28;20195;-68
2023/01/07 09:05:55;;;;;;;5.07;2.90;;;;;;;9.27;93.02;96388.66;4979768;28;20234;-68
2023/01/07 09:08:21;;;;;;;7.90;3.03;;;;;;;9.28;91.67;96386.88;4980169;28;20566;-69
2023/01/07 09:10:48;;;;;;;11.37;6.00;;;;;;;9.21;91.03;96385.88;4979436;28;20226;-69
2023/01/07 09:13:15;;;;;;;15.10;5.93;;;;;;;9.12;91.01;96387.66;4980545;28;20207;-68
2023/01/07 09:15:42;;;;;;;16.70;5.50;;;;;;;9.46;91.84;96384.88;4979404;28;20235;-69
2023/01/07 09:18:09;;;;;;;6.13;2.70;;;;;;;9.44;88.40;96385.03;4980341;28;21272;-69
2023/01/07 09:20:35;;;;;;;6.27;3.33;;;;;;;9.53;87.27;96377.97;4980537;28;20203;-69
2023/01/07 09:23:02;;;;;;;7.70;3.60;;;;;;;9.53;88.22;96375.31;4980538;28;20207;-69
2023/01/07 09:25:28;;;;;;;4.63;2.83;;;;;;;9.52;88.56;96373.69;4978923;28;20231;-69
2023/01/07 09:27:55;;;;;;;5.00;2.83;;;;;;;9.64;88.17;96367.09;4980331;28;20691;-69
2023/01/07 09:30:21;;;;;;;5.73;3.30;;;;;;;9.52;88.58;96368.41;4979496;28;20203;-69
2023/01/07 09:32:49;;;;;;;5.17;3.00;;;;;;;9.75;87.09;96365.72;4979754;28;20213;-69
2023/01/07 09:35:16;;;;;;;8.07;4.50;;;;;;;9.74;88.12;96361.44;4978553;28;20214;-68
2023/01/07 09:37:42;;;;;;;8.37;4.70;;;;;;;9.66;88.58;96360.69;4980313;28;20199;-69
2023/01/07 09:40:19;;;;;;;13.27;5.13;;;;;;;9.91;88.88;96365.66;4979761;28;20204;-68
2023/01/07 09:42:56;;;;;;;7.37;3.97;;;;;;;9.86;87.04;96360.13;4979922;28;20203;-68
2023/01/07 09:45:25;;;;;;;5.67;3.47;;;;;;;9.90;87.56;96350.91;4979753;28;20209;-68
2023/01/07 09:47:56;;;;;;;7.00;3.70;;;;;;;10.03;87.46;96348.56;4980520;28;20198;-68
2023/01/07 09:50:40;;;;;;;7.97;3.67;;;;;;;9.98;85.97;96350.03;4979505;28;20686;-68
2023/01/07 09:53:12;;;;;;;6.23;3.10;;;;;;;9.91;86.21;96349.88;4980219;28;20211;-68
2023/01/07 09:55:41;;;;;;;7.30;3.40;;;;;;;9.95;86.64;96348.56;4978971;28;20223;-68
2023/01/07 09:58:13;;;;;;;8.20;4.23;;;;;;;10.05;86.30;96338.66;4980143;28;20221;-67
2023/01/07 10:00:49;;;;;;;7.70;3.97;;;;;;;10.12;86.39;96325.63;4979994;28;20211;-68
2023/01/07 10:03:28;;;;;;;4.67;2.70;;;;;;;10.16;85.45;96327.78;4979466;28;20207;-68
2023/01/07 10:06:04;;;;;;;4.73;2.47;;;;;;;10.13;84.29;96325.50;4978938;28;20223;-68
2023/01/07 10:08:43;;;;;;;6.50;3.10;;;;;;;10.20;84.04;96323.78;4978158;28;20207;-68
2023/01/07 10:11:19;;;;;;;5.37;2.87;;;;;;;10.27;83.84;96316.03;4978744;28;20231;-69
2023/01/07 10:14:02;;;;;;;4.60;2.80;;;;;;;10.36;84.53;96319.25;4978539;28;20703;-69
2023/01/07 10:16:38;;;;;;;4.97;2.70;;;;;;;10.31;83.18;96315.53;4979735;28;20238;-68
2023/01/07 10:19:15;;;;;;;6.77;2.60;;;;;;;10.48;84.15;96314.41;4978991;28;20257;-68
2023/01/07 10:21:47;;;;;;;6.77;2.80;;;;;;;10.45;83.88;96312.13;4978391;28;20679;-69
2023/01/07 10:24:19;;;;;;;5.53;3.10;;;;;;;10.41;84.17;96313.47;4978489;28;20203;-68
2023/01/07 10:26:49;;;;;;;5.57;2.83;;;;;;;10.54;83.99;96305.81;4978823;28;20215;-68
2023/01/07 10:29:20;;;;;;;4.53;2.60;;;;;;;10.49;83.46;96306.34;4978971;28;20218;-68
2023/01/07 10:31:48;;;;;;;7.77;3.50;;;;;;;10.67;82.41;96303.44;4978391;28;20219;-68
2023/01/07 10:34:21;;;;;;;3.90;2.80;;;;;;;10.68;83.09;96297.13;4978312;28;20308;-68
2023/01/07 10:37:00;;;;;;;6.20;2.40;;;;;;;10.85;81.36;96296.03;4978603;28;20223;-68
2023/01/07 10:39:36;;;;;;;5.57;2.90;;;;;;;10.55;82.32;96294.28;4979483;28;20214;-68
2023/01/07 10:42:12;;;;;;;4.97;2.83;;;;;;;10.75;82.87;96292.81;4977871;28;20210;-69
2023/01/07 10:45:23;;;;;;;6.17;3.50;;;;;;;10.95;82.36;96287.69;4975374;28;20592;-69
2023/01/07 10:48:03;;;;;;;4.07;2.50;;;;;;;11.13;80.23;96288.19;4978297;28;20250;-68
2023/01/07 10:50:48;;;;;;;5.20;2.23;;;;;;;11.14;80.74;96287.19;4978989;28;20229;-68
2023/01/07 10:53:24;;;;;;;3.50;2.20;;;;;;;10.94;81.28;96282.59;4978029;28;20207;-69
2023/01/07 10:56:00;;;;;;;4.50;2.73;;;;;;;11.02;80.69;96274.59;4978090;28;20223;-69
2023/01/07 10:58:34;;;;;;;3.03;2.00;;;;;;;10.63;81.95;96273.97;4979105;28;20202;-69
2023/01/07 11:01:00;;;;;;;4.60;2.50;;;;;;;10.73;82.55;96273.72;4978863;28;20209;-68
2023/01/07 11:03:28;;;;;;;4.73;2.47;;;;;;;10.97;80.94;96269.06;4978703;28;20303;-68
2023/01/07 11:05:59;;;;;;;3.63;2.40;;;;;;;11.25;80.11;96268.31;4978943;28;20219;-68
2023/01/07 11:08:29;;;;;;;3.70;2.07;;;;;;;11.17;80.68;96252.53;4977910;28;20679;-68
2023/01/07 11:10:57;;;;;;;3.73;2.50;;;;;;;11.24;80.46;96255.28;4978692;28;20223;-68
2023/01/07 11:13:27;;;;;;;5.10;2.80;;;;;;;11.18;81.36;96254.19;4977900;28;20215;-69
2023/01/07 11:15:57;;;;;;;5.43;3.20;;;;;;;11.17;81.59;96252.53;4978302;28;20231;-68
2023/01/07 11:18:28;;;;;;;4.23;2.57;;;;;;;11.22;80.88;96244.09;4978493;28;20207;-69
2023/01/07 11:20:57;;;;;;;4.00;2.60;;;;;;;11.10;80.39;96243.72;4978435;28;20203;-69
2023/01/07 11:23:33;;;;;;;3.67;2.63;;;;;;;11.34;79.58;96234.72;4977983;28;20274;-69
2023/01/07 11:26:11;;;;;;;4.30;2.50;;;;;;;11.40;79.99;96236.66;4978544;28;20233;-69
2023/01/07 11:28:43;;;;;;;7.57;3.50;;;;;;;11.30;79.98;96233.47;4977992;28;20671;-69
2023/01/07 11:31:09;;;;;;;3.87;2.70;;;;;;;11.17;79.15;96235.91;4977925;28;20231;-69
2023/01/07 11:33:39;;;;;;;5.50;2.63;;;;;;;11.25;80.41;96228.75;4977151;28;20208;-69
2023/01/07 11:36:08;;;;;;;4.03;2.40;;;;;;;11.27;80.79;96228.56;4978711;28;20234;-69
2023/01/07 11:38:36;;;;;;;5.40;2.43;;;;;;;11.38;80.96;96230.72;4978180;28;20218;-69
2023/01/07 11:41:05;;;;;;;4.03;2.40;;;;;;;11.21;79.26;96227.44;4979221;28;20203;-69
2023/01/07 11:43:33;;;;;;;4.57;2.70;;;;;;;11.25;79.75;96226.09;4978354;28;20207;-69